sensor_id;sensor_type;location;lat;lon;timestamp;P1;durP1;ratioP1;P2;durP2;ratioP2
15553;SDS011;7878;44.632;10.942;2023-06-14T00:01:47;28.67;;;17.00;;
15553;SDS011;7878;44.632;10.942;2023-06-14T00:04:13;25.85;;;16.23;;
15553;SDS011;7878;44.632;10.942;2023-06-14T00:06:41;18.52;;;15.63;;
15553;SDS011;7878;44.632;10.942;2023-06-14T00:09:10;18.13;;;15.35;;
15553;SDS011;7878;44.632;10.942;2023-06-14T00:11:37;16.67;;;14.82;;
15553;SDS011;7878;44.632;10.942;2023-06-14T00:14:04;19.05;;;14.15;;
15553;SDS011;7878;44.632;10.942;2023-06-14T00:16:30;16.42;;;14.30;;
15553;SDS011;7878;44.632;10.942;2023-06-14T00:18:57;17.52;;;14.07;;
15553;SDS011;7878;44.632;10.942;2023-06-14T00:21:23;15.55;;;12.90;;
15553;SDS011;7878;44.632;10.942;2023-06-14T00:23:49;17.75;;;12.82;;
15553;SDS011;7878;44.632;10.942;2023-06-14T00:26:15;19.73;;;13.68;;
15553;SDS011;7878;44.632;10.942;2023-06-14T00:28:40;14.70;;;13.20;;
15553;SDS011;7878;44.632;10.942;2023-06-14T00:31:06;15.75;;;12.18;;
15553;SDS011;7878;44.632;10.942;2023-06-14T00:33:31;15.77;;;12.73;;
15553;SDS011;7878;44.632;10.942;2023-06-14T00:35:57;13.60;;;12.20;;
15553;SDS011;7878;44.632;10.942;2023-06-14T00:38:23;14.95;;;12.70;;
15553;SDS011;7878;44.632;10.942;2023-06-14T00:40:48;16.63;;;12.60;;
15553;SDS011;7878;44.632;10.942;2023-06-14T00:43:14;18.42;;;12.75;;
15553;SDS011;7878;44.632;10.942;2023-06-14T00:45:40;16.13;;;13.07;;
15553;SDS011;7878;44.632;10.942;2023-06-14T00:48:05;18.75;;;14.02;;
15553;SDS011;7878;44.632;10.942;2023-06-14T00:50:33;18.10;;;12.88;;
15553;SDS011;7878;44.632;10.942;2023-06-14T00:52:59;17.88;;;14.93;;
15553;SDS011;7878;44.632;10.942;2023-06-14T00:55:26;17.90;;;15.15;;
15553;SDS011;7878;44.632;10.942;2023-06-14T00:57:53;17.73;;;14.77;;
15553;SDS011;7878;44.632;10.942;2023-06-14T01:00:19;22.73;;;17.23;;
15553;SDS011;7878;44.632;10.942;2023-06-14T01:02:45;23.08;;;17.75;;
15553;SDS011;7878;44.632;10.942;2023-06-14T01:05:11;23.08;;;17.33;;
15553;SDS011;7878;44.632;10.942;2023-06-14T01:10:41;21.73;;;17.27;;
15553;SDS011;7878;44.632;10.942;2023-06-14T01:15:55;22.75;;;16.52;;
15553;SDS011;7878;44.632;10.942;2023-06-14T01:18:22;24.42;;;17.15;;
15553;SDS011;7878;44.632;10.942;2023-06-14T01:20:49;24.02;;;18.17;;
15553;SDS011;7878;44.632;10.942;2023-06-14T01:23:18;23.35;;;14.55;;
15553;SDS011;7878;44.632;10.942;2023-06-14T01:25:48;18.15;;;14.35;;
15553;SDS011;7878;44.632;10.942;2023-06-14T01:28:18;19.83;;;15.18;;
15553;SDS011;7878;44.632;10.942;2023-06-14T01:30:46;23.35;;;14.65;;
15553;SDS011;7878;44.632;10.942;2023-06-14T01:33:21;20.02;;;14.65;;
15553;SDS011;7878;44.632;10.942;2023-06-14T01:35:52;14.85;;;13.23;;
15553;SDS011;7878;44.632;10.942;2023-06-14T01:38:25;19.83;;;14.52;;
15553;SDS011;7878;44.632;10.942;2023-06-14T01:40:52;22.92;;;15.18;;
15553;SDS011;7878;44.632;10.942;2023-06-14T01:43:20;19.30;;;15.05;;
15553;SDS011;7878;44.632;10.942;2023-06-14T01:45:47;17.75;;;13.05;;
15553;SDS011;7878;44.632;10.942;2023-06-14T01:48:14;18.73;;;12.93;;
15553;SDS011;7878;44.632;10.942;2023-06-14T01:50:40;17.83;;;13.63;;
15553;SDS011;7878;44.632;10.942;2023-06-14T01:53:09;17.35;;;14.55;;
15553;SDS011;7878;44.632;10.942;2023-06-14T01:55:35;22.05;;;14.48;;
15553;SDS011;7878;44.632;10.942;2023-06-14T01:58:05;20.73;;;13.55;;
15553;SDS011;7878;44.632;10.942;2023-06-14T02:00:30;19.75;;;14.35;;
15553;SDS011;7878;44.632;10.942;2023-06-14T02:02:56;19.63;;;14.35;;
15553;SDS011;7878;44.632;10.942;2023-06-14T02:05:22;22.83;;;14.38;;
15553;SDS011;7878;44.632;10.942;2023-06-14T02:07:48;28.55;;;16.08;;
15553;SDS011;7878;44.632;10.942;2023-06-14T02:10:15;21.80;;;17.48;;
15553;SDS011;7878;44.632;10.942;2023-06-14T02:12:42;23.95;;;17.05;;
15553;SDS011;7878;44.632;10.942;2023-06-14T02:15:08;29.40;;;17.50;;
15553;SDS011;7878;44.632;10.942;2023-06-14T02:17:42;25.58;;;17.98;;
15553;SDS011;7878;44.632;10.942;2023-06-14T02:20:08;31.25;;;18.13;;
15553;SDS011;7878;44.632;10.942;2023-06-14T02:22:34;32.60;;;18.33;;
15553;SDS011;7878;44.632;10.942;2023-06-14T02:25:00;22.42;;;17.00;;
15553;SDS011;7878;44.632;10.942;2023-06-14T02:27:26;27.67;;;17.13;;
15553;SDS011;7878;44.632;10.942;2023-06-14T02:29:51;20.15;;;16.50;;
15553;SDS011;7878;44.632;10.942;2023-06-14T02:32:17;20.65;;;16.23;;
15553;SDS011;7878;44.632;10.942;2023-06-14T02:34:43;23.33;;;15.98;;
15553;SDS011;7878;44.632;10.942;2023-06-14T02:37:08;28.98;;;17.20;;
15553;SDS011;7878;44.632;10.942;2023-06-14T02:39:34;20.90;;;14.50;;
15553;SDS011;7878;44.632;10.942;2023-06-14T02:42:00;20.20;;;14.80;;
15553;SDS011;7878;44.632;10.942;2023-06-14T02:44:26;18.20;;;13.52;;
15553;SDS011;7878;44.632;10.942;2023-06-14T02:46:53;16.40;;;13.88;;
15553;SDS011;7878;44.632;10.942;2023-06-14T02:49:20;19.83;;;14.63;;
15553;SDS011;7878;44.632;10.942;2023-06-14T02:51:46;18.95;;;14.10;;
15553;SDS011;7878;44.632;10.942;2023-06-14T02:54:12;21.48;;;14.85;;
15553;SDS011;7878;44.632;10.942;2023-06-14T02:56:38;24.15;;;14.65;;
15553;SDS011;7878;44.632;10.942;2023-06-14T02:59:04;24.02;;;15.07;;
15553;SDS011;7878;44.632;10.942;2023-06-14T03:01:30;21.65;;;13.27;;
15553;SDS011;7878;44.632;10.942;2023-06-14T03:04:06;20.38;;;14.40;;
15553;SDS011;7878;44.632;10.942;2023-06-14T03:06:32;19.65;;;13.93;;
15553;SDS011;7878;44.632;10.942;2023-06-14T03:08:58;17.10;;;13.13;;
15553;SDS011;7878;44.632;10.942;2023-06-14T03:11:26;15.85;;;12.80;;
15553;SDS011;7878;44.632;10.942;2023-06-14T03:13:52;22.40;;;12.80;;
15553;SDS011;7878;44.632;10.942;2023-06-14T03:16:18;17.17;;;11.23;;
15553;SDS011;7878;44.632;10.942;2023-06-14T03:18:45;17.30;;;11.93;;
15553;SDS011;7878;44.632;10.942;2023-06-14T03:21:10;17.50;;;10.55;;
15553;SDS011;7878;44.632;10.942;2023-06-14T03:23:36;14.70;;;11.07;;
15553;SDS011;7878;44.632;10.942;2023-06-14T03:26:02;17.88;;;10.15;;
15553;SDS011;7878;44.632;10.942;2023-06-14T03:28:27;18.70;;;10.80;;
15553;SDS011;7878;44.632;10.942;2023-06-14T03:30:53;15.43;;;10.20;;
15553;SDS011;7878;44.632;10.942;2023-06-14T03:33:19;17.50;;;9.98;;
15553;SDS011;7878;44.632;10.942;2023-06-14T03:35:45;11.52;;;8.90;;
15553;SDS011;7878;44.632;10.942;2023-06-14T03:38:11;14.32;;;10.40;;
15553;SDS011;7878;44.632;10.942;2023-06-14T03:40:37;13.80;;;8.80;;
15553;SDS011;7878;44.632;10.942;2023-06-14T03:43:03;17.77;;;9.73;;
15553;SDS011;7878;44.632;10.942;2023-06-14T03:45:31;10.30;;;8.73;;
15553;SDS011;7878;44.632;10.942;2023-06-14T03:47:56;12.27;;;9.48;;
15553;SDS011;7878;44.632;10.942;2023-06-14T03:50:22;14.93;;;9.73;;
15553;SDS011;7878;44.632;10.942;2023-06-14T03:52:48;12.55;;;10.18;;
15553;SDS011;7878;44.632;10.942;2023-06-14T03:55:14;15.57;;;10.77;;
15553;SDS011;7878;44.632;10.942;2023-06-14T03:57:41;17.23;;;9.98;;
15553;SDS011;7878;44.632;10.942;2023-06-14T04:00:07;13.90;;;9.70;;
15553;SDS011;7878;44.632;10.942;2023-06-14T04:02:34;18.45;;;11.20;;
15553;SDS011;7878;44.632;10.942;2023-06-14T04:05:01;15.55;;;9.90;;
15553;SDS011;7878;44.632;10.942;2023-06-14T04:07:28;18.60;;;10.25;;
15553;SDS011;7878;44.632;10.942;2023-06-14T04:09:54;17.85;;;9.82;;
15553;SDS011;7878;44.632;10.942;2023-06-14T04:12:20;19.40;;;9.93;;
15553;SDS011;7878;44.632;10.942;2023-06-14T04:14:46;20.23;;;10.10;;
15553;SDS011;7878;44.632;10.942;2023-06-14T04:17:11;15.63;;;10.95;;
15553;SDS011;7878;44.632;10.942;2023-06-14T04:19:37;17.60;;;12.32;;
15553;SDS011;7878;44.632;10.942;2023-06-14T04:22:03;19.45;;;12.43;;
15553;SDS011;7878;44.632;10.942;2023-06-14T04:24:28;17.05;;;13.50;;
15553;SDS011;7878;44.632;10.942;2023-06-14T04:26:57;19.35;;;13.82;;
15553;SDS011;7878;44.632;10.942;2023-06-14T04:29:26;19.17;;;15.02;;
15553;SDS011;7878;44.632;10.942;2023-06-14T04:31:54;20.38;;;14.35;;
15553;SDS011;7878;44.632;10.942;2023-06-14T04:34:24;18.92;;;14.40;;
15553;SDS011;7878;44.632;10.942;2023-06-14T04:36:58;23.17;;;15.98;;
15553;SDS011;7878;44.632;10.942;2023-06-14T04:39:26;23.17;;;17.25;;
15553;SDS011;7878;44.632;10.942;2023-06-14T04:41:52;26.30;;;18.55;;
15553;SDS011;7878;44.632;10.942;2023-06-14T04:44:21;29.35;;;19.33;;
15553;SDS011;7878;44.632;10.942;2023-06-14T04:46:49;32.75;;;21.25;;
15553;SDS011;7878;44.632;10.942;2023-06-14T04:49:15;32.20;;;21.35;;
15553;SDS011;7878;44.632;10.942;2023-06-14T04:51:42;41.85;;;21.23;;
15553;SDS011;7878;44.632;10.942;2023-06-14T04:54:11;23.95;;;21.13;;
15553;SDS011;7878;44.632;10.942;2023-06-14T04:56:40;30.17;;;21.40;;
15553;SDS011;7878;44.632;10.942;2023-06-14T04:59:07;33.22;;;21.42;;
15553;SDS011;7878;44.632;10.942;2023-06-14T05:01:34;32.50;;;20.27;;
15553;SDS011;7878;44.632;10.942;2023-06-14T05:04:00;35.72;;;20.83;;
15553;SDS011;7878;44.632;10.942;2023-06-14T05:06:26;26.77;;;19.42;;
15553;SDS011;7878;44.632;10.942;2023-06-14T05:08:52;22.08;;;19.48;;
15553;SDS011;7878;44.632;10.942;2023-06-14T05:11:18;27.40;;;18.77;;
15553;SDS011;7878;44.632;10.942;2023-06-14T05:13:44;30.95;;;19.52;;
15553;SDS011;7878;44.632;10.942;2023-06-14T05:16:10;34.35;;;19.30;;
15553;SDS011;7878;44.632;10.942;2023-06-14T05:18:37;44.33;;;19.77;;
15553;SDS011;7878;44.632;10.942;2023-06-14T05:21:03;35.92;;;21.98;;
15553;SDS011;7878;44.632;10.942;2023-06-14T05:23:31;29.67;;;21.77;;
15553;SDS011;7878;44.632;10.942;2023-06-14T05:25:57;30.15;;;20.63;;
15553;SDS011;7878;44.632;10.942;2023-06-14T05:28:23;30.20;;;20.80;;
15553;SDS011;7878;44.632;10.942;2023-06-14T05:30:49;23.17;;;18.58;;
15553;SDS011;7878;44.632;10.942;2023-06-14T05:33:15;24.83;;;17.33;;
15553;SDS011;7878;44.632;10.942;2023-06-14T05:35:41;34.80;;;19.58;;
15553;SDS011;7878;44.632;10.942;2023-06-14T05:38:07;30.50;;;18.20;;
15553;SDS011;7878;44.632;10.942;2023-06-14T05:40:33;28.02;;;19.58;;
15553;SDS011;7878;44.632;10.942;2023-06-14T05:42:59;32.58;;;20.33;;
15553;SDS011;7878;44.632;10.942;2023-06-14T05:45:25;32.92;;;18.33;;
15553;SDS011;7878;44.632;10.942;2023-06-14T05:47:51;25.88;;;17.98;;
15553;SDS011;7878;44.632;10.942;2023-06-14T05:50:17;33.50;;;17.55;;
15553;SDS011;7878;44.632;10.942;2023-06-14T05:52:43;28.77;;;17.38;;
15553;SDS011;7878;44.632;10.942;2023-06-14T05:55:08;27.90;;;17.55;;
15553;SDS011;7878;44.632;10.942;2023-06-14T05:57:36;23.58;;;16.40;;
15553;SDS011;7878;44.632;10.942;2023-06-14T06:00:02;27.17;;;16.23;;
15553;SDS011;7878;44.632;10.942;2023-06-14T06:02:42;26.10;;;18.27;;
15553;SDS011;7878;44.632;10.942;2023-06-14T06:05:09;30.00;;;19.63;;
15553;SDS011;7878;44.632;10.942;2023-06-14T06:07:35;25.65;;;17.95;;
15553;SDS011;7878;44.632;10.942;2023-06-14T06:10:02;23.77;;;18.42;;
15553;SDS011;7878;44.632;10.942;2023-06-14T06:12:28;21.90;;;18.42;;
15553;SDS011;7878;44.632;10.942;2023-06-14T06:14:53;27.30;;;18.35;;
15553;SDS011;7878;44.632;10.942;2023-06-14T06:17:20;25.23;;;17.75;;
15553;SDS011;7878;44.632;10.942;2023-06-14T06:19:45;25.45;;;19.05;;
15553;SDS011;7878;44.632;10.942;2023-06-14T06:22:11;23.67;;;18.75;;
15553;SDS011;7878;44.632;10.942;2023-06-14T06:24:37;28.67;;;19.70;;
15553;SDS011;7878;44.632;10.942;2023-06-14T06:27:03;24.15;;;18.77;;
15553;SDS011;7878;44.632;10.942;2023-06-14T06:29:29;39.70;;;20.45;;
15553;SDS011;7878;44.632;10.942;2023-06-14T06:31:54;27.23;;;18.92;;
15553;SDS011;7878;44.632;10.942;2023-06-14T06:34:21;22.98;;;17.25;;
15553;SDS011;7878;44.632;10.942;2023-06-14T06:36:47;27.55;;;16.98;;
15553;SDS011;7878;44.632;10.942;2023-06-14T06:39:13;42.20;;;18.38;;
15553;SDS011;7878;44.632;10.942;2023-06-14T06:41:40;22.98;;;16.85;;
15553;SDS011;7878;44.632;10.942;2023-06-14T06:44:06;20.85;;;16.05;;
15553;SDS011;7878;44.632;10.942;2023-06-14T06:46:32;26.40;;;16.08;;
15553;SDS011;7878;44.632;10.942;2023-06-14T06:48:59;21.85;;;17.88;;
15553;SDS011;7878;44.632;10.942;2023-06-14T06:51:25;26.95;;;16.88;;
15553;SDS011;7878;44.632;10.942;2023-06-14T06:53:52;30.17;;;17.13;;
15553;SDS011;7878;44.632;10.942;2023-06-14T06:56:19;23.45;;;17.17;;
15553;SDS011;7878;44.632;10.942;2023-06-14T06:58:48;26.08;;;18.15;;
15553;SDS011;7878;44.632;10.942;2023-06-14T07:01:14;21.92;;;15.63;;
15553;SDS011;7878;44.632;10.942;2023-06-14T07:03:40;23.83;;;15.65;;
15553;SDS011;7878;44.632;10.942;2023-06-14T07:06:06;24.20;;;16.50;;
15553;SDS011;7878;44.632;10.942;2023-06-14T07:08:32;24.40;;;17.00;;
15553;SDS011;7878;44.632;10.942;2023-06-14T07:10:58;22.05;;;16.38;;
15553;SDS011;7878;44.632;10.942;2023-06-14T07:13:23;20.50;;;14.23;;
15553;SDS011;7878;44.632;10.942;2023-06-14T07:15:49;26.63;;;17.45;;
15553;SDS011;7878;44.632;10.942;2023-06-14T07:18:18;23.50;;;15.82;;
15553;SDS011;7878;44.632;10.942;2023-06-14T07:20:44;26.15;;;15.48;;
15553;SDS011;7878;44.632;10.942;2023-06-14T07:23:09;18.08;;;12.63;;
15553;SDS011;7878;44.632;10.942;2023-06-14T07:25:35;28.15;;;15.55;;
15553;SDS011;7878;44.632;10.942;2023-06-14T07:28:01;20.00;;;13.35;;
15553;SDS011;7878;44.632;10.942;2023-06-14T07:30:27;18.05;;;14.13;;
15553;SDS011;7878;44.632;10.942;2023-06-14T07:32:54;17.80;;;12.63;;
15553;SDS011;7878;44.632;10.942;2023-06-14T07:35:20;19.45;;;13.77;;
15553;SDS011;7878;44.632;10.942;2023-06-14T07:37:46;18.58;;;12.57;;
15553;SDS011;7878;44.632;10.942;2023-06-14T07:40:12;15.45;;;10.85;;
15553;SDS011;7878;44.632;10.942;2023-06-14T07:42:38;20.98;;;11.38;;
15553;SDS011;7878;44.632;10.942;2023-06-14T07:45:05;16.63;;;11.07;;
15553;SDS011;7878;44.632;10.942;2023-06-14T07:47:31;13.35;;;11.45;;
15553;SDS011;7878;44.632;10.942;2023-06-14T07:49:57;14.50;;;11.10;;
15553;SDS011;7878;44.632;10.942;2023-06-14T07:52:23;16.48;;;12.00;;
15553;SDS011;7878;44.632;10.942;2023-06-14T07:54:49;15.93;;;12.52;;
15553;SDS011;7878;44.632;10.942;2023-06-14T07:57:15;18.58;;;11.75;;
15553;SDS011;7878;44.632;10.942;2023-06-14T07:59:41;14.90;;;11.02;;
15553;SDS011;7878;44.632;10.942;2023-06-14T08:02:07;13.25;;;11.85;;
15553;SDS011;7878;44.632;10.942;2023-06-14T08:04:32;13.75;;;11.23;;
15553;SDS011;7878;44.632;10.942;2023-06-14T08:06:59;14.88;;;11.50;;
15553;SDS011;7878;44.632;10.942;2023-06-14T08:09:25;21.85;;;13.27;;
15553;SDS011;7878;44.632;10.942;2023-06-14T08:11:53;15.23;;;11.52;;
15553;SDS011;7878;44.632;10.942;2023-06-14T08:14:19;18.65;;;12.55;;
15553;SDS011;7878;44.632;10.942;2023-06-14T08:16:45;13.73;;;10.85;;
15553;SDS011;7878;44.632;10.942;2023-06-14T08:19:10;16.77;;;12.27;;
15553;SDS011;7878;44.632;10.942;2023-06-14T08:21:36;17.05;;;12.68;;
15553;SDS011;7878;44.632;10.942;2023-06-14T08:24:02;20.52;;;12.65;;
15553;SDS011;7878;44.632;10.942;2023-06-14T08:26:28;16.45;;;11.80;;
15553;SDS011;7878;44.632;10.942;2023-06-14T08:28:55;16.08;;;11.60;;
15553;SDS011;7878;44.632;10.942;2023-06-14T08:31:21;18.92;;;13.95;;
15553;SDS011;7878;44.632;10.942;2023-06-14T08:33:47;23.55;;;13.68;;
15553;SDS011;7878;44.632;10.942;2023-06-14T08:36:12;18.63;;;12.48;;
15553;SDS011;7878;44.632;10.942;2023-06-14T08:38:39;20.25;;;12.73;;
15553;SDS011;7878;44.632;10.942;2023-06-14T08:41:05;15.32;;;12.98;;
15553;SDS011;7878;44.632;10.942;2023-06-14T08:43:34;17.38;;;13.75;;
15553;SDS011;7878;44.632;10.942;2023-06-14T08:46:03;18.55;;;12.88;;
15553;SDS011;7878;44.632;10.942;2023-06-14T08:48:31;13.90;;;12.40;;
15553;SDS011;7878;44.632;10.942;2023-06-14T08:51:01;20.65;;;13.00;;
15553;SDS011;7878;44.632;10.942;2023-06-14T08:53:32;14.75;;;13.23;;
15553;SDS011;7878;44.632;10.942;2023-06-14T08:56:02;19.02;;;13.23;;
15553;SDS011;7878;44.632;10.942;2023-06-14T08:58:30;16.40;;;12.70;;
15553;SDS011;7878;44.632;10.942;2023-06-14T09:00:58;16.23;;;13.60;;
15553;SDS011;7878;44.632;10.942;2023-06-14T09:03:27;15.30;;;13.48;;
15553;SDS011;7878;44.632;10.942;2023-06-14T09:05:58;13.38;;;11.98;;
15553;SDS011;7878;44.632;10.942;2023-06-14T09:08:26;13.65;;;12.15;;
15553;SDS011;7878;44.632;10.942;2023-06-14T09:10:55;17.75;;;12.90;;
15553;SDS011;7878;44.632;10.942;2023-06-14T09:13:21;14.35;;;12.10;;
15553;SDS011;7878;44.632;10.942;2023-06-14T09:15:47;17.88;;;12.90;;
15553;SDS011;7878;44.632;10.942;2023-06-14T09:18:13;15.95;;;12.15;;
15553;SDS011;7878;44.632;10.942;2023-06-14T09:20:38;13.50;;;12.10;;
15553;SDS011;7878;44.632;10.942;2023-06-14T09:23:05;13.27;;;11.98;;
15553;SDS011;7878;44.632;10.942;2023-06-14T09:25:32;16.63;;;12.98;;
15553;SDS011;7878;44.632;10.942;2023-06-14T09:28:06;13.82;;;12.50;;
15553;SDS011;7878;44.632;10.942;2023-06-14T09:30:33;13.85;;;12.50;;
15553;SDS011;7878;44.632;10.942;2023-06-14T09:32:58;16.38;;;12.52;;
15553;SDS011;7878;44.632;10.942;2023-06-14T09:35:24;14.40;;;12.82;;
15553;SDS011;7878;44.632;10.942;2023-06-14T09:37:50;13.27;;;10.07;;
15553;SDS011;7878;44.632;10.942;2023-06-14T09:40:20;11.43;;;10.00;;
15553;SDS011;7878;44.632;10.942;2023-06-14T09:42:46;11.93;;;10.20;;
15553;SDS011;7878;44.632;10.942;2023-06-14T09:45:12;10.07;;;9.13;;
15553;SDS011;7878;44.632;10.942;2023-06-14T09:47:39;8.70;;;6.47;;
15553;SDS011;7878;44.632;10.942;2023-06-14T09:50:05;6.85;;;6.07;;
15553;SDS011;7878;44.632;10.942;2023-06-14T09:52:31;7.28;;;5.82;;
15553;SDS011;7878;44.632;10.942;2023-06-14T09:54:57;6.57;;;5.63;;
15553;SDS011;7878;44.632;10.942;2023-06-14T09:57:25;8.18;;;4.80;;
15553;SDS011;7878;44.632;10.942;2023-06-14T09:59:52;4.90;;;4.32;;
15553;SDS011;7878;44.632;10.942;2023-06-14T10:02:29;5.72;;;4.97;;
15553;SDS011;7878;44.632;10.942;2023-06-14T10:05:05;7.00;;;6.30;;
15553;SDS011;7878;44.632;10.942;2023-06-14T10:07:40;7.68;;;6.55;;
15553;SDS011;7878;44.632;10.942;2023-06-14T10:10:09;7.22;;;5.68;;
15553;SDS011;7878;44.632;10.942;2023-06-14T10:12:35;12.45;;;7.00;;
15553;SDS011;7878;44.632;10.942;2023-06-14T10:15:01;7.60;;;6.53;;
15553;SDS011;7878;44.632;10.942;2023-06-14T10:17:41;5.13;;;4.63;;
15553;SDS011;7878;44.632;10.942;2023-06-14T10:22:56;6.85;;;4.80;;
15553;SDS011;7878;44.632;10.942;2023-06-14T10:25:29;5.63;;;4.75;;
15553;SDS011;7878;44.632;10.942;2023-06-14T10:28:17;11.60;;;5.82;;
15553;SDS011;7878;44.632;10.942;2023-06-14T10:33:34;6.10;;;5.60;;
15553;SDS011;7878;44.632;10.942;2023-06-14T10:36:11;10.50;;;6.13;;
15553;SDS011;7878;44.632;10.942;2023-06-14T10:41:31;7.80;;;7.00;;
15553;SDS011;7878;44.632;10.942;2023-06-14T10:46:39;7.13;;;6.45;;
15553;SDS011;7878;44.632;10.942;2023-06-14T10:49:10;6.70;;;5.97;;
15553;SDS011;7878;44.632;10.942;2023-06-14T10:51:41;7.00;;;4.90;;
15553;SDS011;7878;44.632;10.942;2023-06-14T10:54:13;5.47;;;4.95;;
15553;SDS011;7878;44.632;10.942;2023-06-14T10:56:45;8.40;;;6.10;;
15553;SDS011;7878;44.632;10.942;2023-06-14T10:59:15;7.25;;;5.43;;
15553;SDS011;7878;44.632;10.942;2023-06-14T11:02:12;5.40;;;4.80;;
15553;SDS011;7878;44.632;10.942;2023-06-14T11:04:47;5.45;;;4.93;;
15553;SDS011;7878;44.632;10.942;2023-06-14T11:13:02;5.82;;;4.57;;
15553;SDS011;7878;44.632;10.942;2023-06-14T11:15:33;7.97;;;5.20;;
15553;SDS011;7878;44.632;10.942;2023-06-14T11:18:00;7.82;;;5.30;;
15553;SDS011;7878;44.632;10.942;2023-06-14T11:20:35;7.13;;;5.95;;
15553;SDS011;7878;44.632;10.942;2023-06-14T11:23:01;6.28;;;5.13;;
15553;SDS011;7878;44.632;10.942;2023-06-14T11:25:28;9.50;;;4.53;;
15553;SDS011;7878;44.632;10.942;2023-06-14T11:27:54;5.15;;;4.22;;
15553;SDS011;7878;44.632;10.942;2023-06-14T11:30:21;4.75;;;4.30;;
15553;SDS011;7878;44.632;10.942;2023-06-14T11:32:47;4.55;;;4.15;;
15553;SDS011;7878;44.632;10.942;2023-06-14T11:35:13;4.70;;;3.90;;
15553;SDS011;7878;44.632;10.942;2023-06-14T11:37:40;4.78;;;3.80;;
15553;SDS011;7878;44.632;10.942;2023-06-14T11:40:07;3.42;;;3.22;;
15553;SDS011;7878;44.632;10.942;2023-06-14T11:42:35;4.93;;;3.90;;
15553;SDS011;7878;44.632;10.942;2023-06-14T11:45:01;4.35;;;3.75;;
15553;SDS011;7878;44.632;10.942;2023-06-14T11:47:31;4.32;;;3.58;;
15553;SDS011;7878;44.632;10.942;2023-06-14T11:49:58;8.07;;;3.45;;
15553;SDS011;7878;44.632;10.942;2023-06-14T11:52:24;7.07;;;4.03;;
15553;SDS011;7878;44.632;10.942;2023-06-14T11:54:50;3.90;;;3.30;;
15553;SDS011;7878;44.632;10.942;2023-06-14T11:57:19;4.18;;;3.20;;
15553;SDS011;7878;44.632;10.942;2023-06-14T11:59:45;7.75;;;3.42;;
15553;SDS011;7878;44.632;10.942;2023-06-14T12:02:18;4.78;;;3.30;;
15553;SDS011;7878;44.632;10.942;2023-06-14T12:04:46;7.13;;;3.80;;
15553;SDS011;7878;44.632;10.942;2023-06-14T12:07:14;3.85;;;3.28;;
15553;SDS011;7878;44.632;10.942;2023-06-14T12:09:42;4.00;;;3.53;;
15553;SDS011;7878;44.632;10.942;2023-06-14T12:12:24;6.68;;;3.45;;
15553;SDS011;7878;44.632;10.942;2023-06-14T12:14:50;5.40;;;3.70;;
15553;SDS011;7878;44.632;10.942;2023-06-14T12:17:17;4.50;;;3.50;;
15553;SDS011;7878;44.632;10.942;2023-06-14T12:19:43;5.05;;;3.65;;
15553;SDS011;7878;44.632;10.942;2023-06-14T12:22:10;10.18;;;3.75;;
15553;SDS011;7878;44.632;10.942;2023-06-14T12:24:37;4.60;;;3.25;;
15553;SDS011;7878;44.632;10.942;2023-06-14T12:27:03;3.83;;;3.42;;
15553;SDS011;7878;44.632;10.942;2023-06-14T12:29:30;4.05;;;3.13;;
15553;SDS011;7878;44.632;10.942;2023-06-14T12:31:56;4.45;;;3.17;;
15553;SDS011;7878;44.632;10.942;2023-06-14T12:34:25;5.60;;;3.22;;
15553;SDS011;7878;44.632;10.942;2023-06-14T12:36:55;6.05;;;3.33;;
15553;SDS011;7878;44.632;10.942;2023-06-14T12:39:21;3.53;;;3.22;;
15553;SDS011;7878;44.632;10.942;2023-06-14T12:41:47;3.50;;;3.20;;
15553;SDS011;7878;44.632;10.942;2023-06-14T12:44:13;6.45;;;2.97;;
15553;SDS011;7878;44.632;10.942;2023-06-14T12:46:41;5.10;;;3.40;;
15553;SDS011;7878;44.632;10.942;2023-06-14T12:49:08;4.57;;;3.10;;
15553;SDS011;7878;44.632;10.942;2023-06-14T12:51:35;4.15;;;3.42;;
15553;SDS011;7878;44.632;10.942;2023-06-14T12:54:00;3.97;;;3.00;;
15553;SDS011;7878;44.632;10.942;2023-06-14T12:56:26;3.80;;;3.30;;
15553;SDS011;7878;44.632;10.942;2023-06-14T12:58:52;4.68;;;3.42;;
15553;SDS011;7878;44.632;10.942;2023-06-14T13:01:18;5.88;;;3.40;;
15553;SDS011;7878;44.632;10.942;2023-06-14T13:03:45;3.85;;;3.13;;
15553;SDS011;7878;44.632;10.942;2023-06-14T13:06:15;3.58;;;3.28;;
15553;SDS011;7878;44.632;10.942;2023-06-14T13:08:41;4.85;;;3.50;;
15553;SDS011;7878;44.632;10.942;2023-06-14T13:11:07;3.83;;;3.42;;
15553;SDS011;7878;44.632;10.942;2023-06-14T13:13:32;3.80;;;3.10;;
15553;SDS011;7878;44.632;10.942;2023-06-14T13:15:58;4.25;;;3.30;;
15553;SDS011;7878;44.632;10.942;2023-06-14T13:18:24;3.35;;;3.05;;
15553;SDS011;7878;44.632;10.942;2023-06-14T13:20:49;5.20;;;3.60;;
15553;SDS011;7878;44.632;10.942;2023-06-14T13:23:16;5.63;;;4.10;;
15553;SDS011;7878;44.632;10.942;2023-06-14T13:25:42;4.38;;;3.70;;
15553;SDS011;7878;44.632;10.942;2023-06-14T13:28:08;4.63;;;3.97;;
15553;SDS011;7878;44.632;10.942;2023-06-14T13:30:34;7.07;;;4.38;;
15553;SDS011;7878;44.632;10.942;2023-06-14T13:33:00;8.63;;;4.57;;
15553;SDS011;7878;44.632;10.942;2023-06-14T13:35:26;8.95;;;4.18;;
15553;SDS011;7878;44.632;10.942;2023-06-14T13:37:52;5.72;;;4.07;;
15553;SDS011;7878;44.632;10.942;2023-06-14T13:40:18;7.25;;;4.78;;
15553;SDS011;7878;44.632;10.942;2023-06-14T13:42:45;9.60;;;4.22;;
15553;SDS011;7878;44.632;10.942;2023-06-14T13:45:12;5.70;;;4.45;;
15553;SDS011;7878;44.632;10.942;2023-06-14T13:47:38;4.68;;;4.28;;
15553;SDS011;7878;44.632;10.942;2023-06-14T13:50:04;4.88;;;4.30;;
15553;SDS011;7878;44.632;10.942;2023-06-14T13:52:30;5.40;;;4.13;;
15553;SDS011;7878;44.632;10.942;2023-06-14T13:54:56;4.28;;;3.83;;
15553;SDS011;7878;44.632;10.942;2023-06-14T13:57:22;4.30;;;3.90;;
15553;SDS011;7878;44.632;10.942;2023-06-14T13:59:48;8.77;;;4.55;;
15553;SDS011;7878;44.632;10.942;2023-06-14T14:02:13;13.65;;;5.28;;
15553;SDS011;7878;44.632;10.942;2023-06-14T14:04:39;5.40;;;3.85;;
15553;SDS011;7878;44.632;10.942;2023-06-14T14:07:06;8.65;;;4.13;;
15553;SDS011;7878;44.632;10.942;2023-06-14T14:09:32;5.32;;;4.35;;
15553;SDS011;7878;44.632;10.942;2023-06-14T14:12:02;4.97;;;4.35;;
15553;SDS011;7878;44.632;10.942;2023-06-14T14:14:29;4.40;;;4.10;;
15553;SDS011;7878;44.632;10.942;2023-06-14T14:16:57;4.30;;;3.90;;
15553;SDS011;7878;44.632;10.942;2023-06-14T14:19:22;5.65;;;4.78;;
15553;SDS011;7878;44.632;10.942;2023-06-14T14:21:48;4.65;;;3.85;;
15553;SDS011;7878;44.632;10.942;2023-06-14T14:24:14;6.43;;;4.57;;
15553;SDS011;7878;44.632;10.942;2023-06-14T14:26:41;9.38;;;4.50;;
15553;SDS011;7878;44.632;10.942;2023-06-14T14:29:06;6.55;;;4.50;;
15553;SDS011;7878;44.632;10.942;2023-06-14T14:31:32;5.43;;;4.53;;
15553;SDS011;7878;44.632;10.942;2023-06-14T14:33:58;4.82;;;4.40;;
15553;SDS011;7878;44.632;10.942;2023-06-14T14:36:24;9.07;;;5.00;;
15553;SDS011;7878;44.632;10.942;2023-06-14T14:38:50;4.15;;;3.85;;
15553;SDS011;7878;44.632;10.942;2023-06-14T14:41:17;5.70;;;4.05;;
15553;SDS011;7878;44.632;10.942;2023-06-14T14:43:42;5.07;;;4.38;;
15553;SDS011;7878;44.632;10.942;2023-06-14T14:46:08;6.28;;;4.80;;
15553;SDS011;7878;44.632;10.942;2023-06-14T14:48:34;5.63;;;4.13;;
15553;SDS011;7878;44.632;10.942;2023-06-14T14:51:00;5.72;;;4.35;;
15553;SDS011;7878;44.632;10.942;2023-06-14T14:53:25;10.60;;;4.55;;